Time;durP1;ratioP1;P1;durP2;ratioP2;P2;SDS_P1;SDS_P2;PMS_P1;PMS_P2;Temp;Humidity;BMP_temperature;BMP_pressure;BME280_temperature;BME280_humidity;BME280_pressure;Samples;Min_cycle;Max_cycle;Signal;HPM_P1;HPM_P2
2022/12/27 00:01:30;;;;;;;6.93;2.73;;;;;;;2.72;100.00;100941.81;4997622;28;20683;-67
2022/12/27 00:03:55;;;;;;;6.57;2.93;;;;;;;2.51;100.00;100950.44;5014683;28;20194;-67
2022/12/27 00:06:23;;;;;;;4.83;3.13;;;;;;;2.47;100.00;100942.00;5025873;28;20186;-68
2022/12/27 00:08:49;;;;;;;5.07;3.07;;;;;;;2.54;100.00;100942.78;5026589;28;20630;-68
2022/12/27 00:11:18;;;;;;;4.80;2.30;;;;;;;2.41;100.00;100947.94;5002730;28;20311;-67
2022/12/27 00:13:44;;;;;;;5.90;2.60;;;;;;;2.42;100.00;100956.44;5015866;28;20194;-67
2022/12/27 00:16:13;;;;;;;4.03;2.40;;;;;;;2.32;100.00;100958.19;5002494;28;20296;-67
2022/12/27 00:18:39;;;;;;;7.30;3.00;;;;;;;2.39;100.00;100953.91;5010071;28;20664;-67
2022/12/27 00:21:06;;;;;;;4.30;3.00;;;;;;;2.37;100.00;100963.22;4996994;28;20245;-67
2022/12/27 00:23:40;;;;;;;3.73;3.33;;;;;;;2.39;100.00;100969.13;5005674;28;20199;-67
2022/12/27 00:26:09;;;;;;;3.20;1.80;;;;;;;2.49;100.00;100964.84;5000659;28;20661;-67
2022/12/27 00:28:35;;;;;;;6.00;2.20;;;;;;;2.41;100.00;100962.34;5008046;28;20620;-68
2022/12/27 00:31:04;;;;;;;4.60;2.20;;;;;;;2.39;100.00;100957.28;4995584;28;20313;-67
2022/12/27 00:33:32;;;;;;;9.07;2.67;;;;;;;2.49;100.00;100954.69;5010722;28;20178;-67
2022/12/27 00:35:59;;;;;;;5.53;1.73;;;;;;;2.50;100.00;100959.72;5025952;28;20273;-67
2022/12/27 00:38:24;;;;;;;4.13;1.70;;;;;;;2.53;100.00;100966.47;5010134;28;20266;-67
2022/12/27 00:40:50;;;;;;;8.33;2.10;;;;;;;2.42;100.00;100967.41;5007219;28;20290;-68
2022/12/27 00:43:15;;;;;;;5.53;2.10;;;;;;;2.39;100.00;100979.28;5020470;28;20186;-68
2022/12/27 00:45:42;;;;;;;4.77;1.93;;;;;;;2.39;100.00;100971.66;5011185;28;20185;-67
2022/12/27 00:48:07;;;;;;;3.73;1.50;;;;;;;2.39;100.00;100972.53;4996808;28;20192;-67
2022/12/27 00:50:32;;;;;;;3.03;1.50;;;;;;;2.34;100.00;100984.38;4983472;28;20232;-67
2022/12/27 00:52:58;;;;;;;4.30;2.27;;;;;;;2.46;100.00;100985.19;5003644;28;20187;-67
2022/12/27 00:55:23;;;;;;;3.60;1.40;;;;;;;2.44;100.00;100982.63;5014393;28;20181;-67
2022/12/27 00:57:48;;;;;;;4.17;1.40;;;;;;;2.48;100.00;100986.84;5014149;28;20287;-67
2022/12/27 01:00:14;;;;;;;4.63;1.60;;;;;;;2.47;100.00;100980.09;5001102;28;20336;-66
2022/12/27 01:02:40;;;;;;;7.77;1.73;;;;;;;2.50;100.00;100986.84;5003597;28;20186;-66
2022/12/27 01:05:05;;;;;;;3.73;1.20;;;;;;;2.51;100.00;100988.53;5005431;28;20654;-66
2022/12/27 01:07:31;;;;;;;5.33;1.70;;;;;;;2.60;100.00;100998.63;5009065;28;20198;-66
2022/12/27 01:09:59;;;;;;;4.73;1.80;;;;;;;2.47;100.00;100991.94;5014645;28;20563;-66
2022/12/27 01:12:24;;;;;;;4.40;1.47;;;;;;;2.44;100.00;100999.56;5007745;28;20296;-66
2022/12/27 01:14:50;;;;;;;3.80;1.90;;;;;;;2.48;100.00;100994.47;5014472;28;20653;-66
2022/12/27 01:17:15;;;;;;;4.17;1.10;;;;;;;2.41;100.00;100993.66;5013762;28;20209;-66
2022/12/27 01:19:41;;;;;;;4.13;1.20;;;;;;;2.38;100.00;100996.22;5014447;28;20233;-66
2022/12/27 01:22:06;;;;;;;3.63;1.23;;;;;;;2.45;100.00;100999.56;5019371;28;20703;-66
2022/12/27 01:24:33;;;;;;;2.23;1.40;;;;;;;2.36;100.00;101005.53;5009255;28;20226;-66
2022/12/27 01:26:58;;;;;;;3.83;1.43;;;;;;;2.26;100.00;101002.22;5007602;28;20174;-66
2022/12/27 01:29:24;;;;;;;3.80;1.20;;;;;;;2.39;100.00;101000.47;5013949;28;20183;-66
2022/12/27 01:31:50;;;;;;;4.90;1.47;;;;;;;2.34;100.00;101002.16;5009063;28;20727;-67
2022/12/27 01:34:16;;;;;;;6.00;1.60;;;;;;;2.54;100.00;101009.69;5013898;28;20596;-67
2022/12/27 01:36:41;;;;;;;2.87;1.30;;;;;;;2.37;100.00;101009.78;5012417;28;20666;-67
2022/12/27 01:39:10;;;;;;;7.20;1.67;;;;;;;2.46;100.00;101018.19;5012577;28;20177;-66
2022/12/27 01:44:55;;;;;;;3.47;1.57;;;;;;;2.33;100.00;101023.34;5013879;28;20192;-66
2022/12/27 01:47:51;;;;;;;5.40;2.47;;;;;;;2.24;100.00;101036.09;4993558;28;21063;-66
2022/12/27 01:50:19;;;;;;;5.27;1.50;;;;;;;2.35;100.00;101029.25;5003809;28;20174;-66
2022/12/27 01:53:10;;;;;;;5.07;2.63;;;;;;;2.22;100.00;101028.47;5006937;28;20189;-66
2022/12/27 01:55:47;;;;;;;2.50;1.50;;;;;;;2.18;100.00;101033.56;5028909;28;20274;-66
2022/12/27 01:58:21;;;;;;;6.23;1.57;;;;;;;2.34;100.00;101029.25;5011621;28;20203;-66
2022/12/27 02:00:47;;;;;;;5.03;1.50;;;;;;;2.28;100.00;101036.91;5001977;28;20251;-66
2022/12/27 02:03:23;;;;;;;7.53;1.73;;;;;;;2.23;100.00;101037.78;5008958;28;20177;-66
2022/12/27 02:05:50;;;;;;;3.73;1.60;;;;;;;2.31;100.00;101036.88;5008373;28;20183;-66
2022/12/27 02:08:21;;;;;;;1.37;0.93;;;;;;;2.24;100.00;101036.91;5010037;28;20180;-66
2022/12/27 02:10:47;;;;;;;6.77;1.73;;;;;;;2.25;100.00;101027.63;5001819;28;20256;-67
2022/12/27 02:13:14;;;;;;;3.03;1.53;;;;;;;2.24;100.00;101039.44;5010970;28;20179;-67
2022/12/27 02:15:42;;;;;;;3.93;1.80;;;;;;;2.24;100.00;101036.91;5008900;28;20260;-67
2022/12/27 02:18:07;;;;;;;3.03;1.27;;;;;;;2.35;100.00;101044.47;4991439;28;20213;-67
2022/12/27 02:20:56;;;;;;;2.27;1.20;;;;;;;2.35;100.00;101041.94;5000576;28;20233;-67
2022/12/27 02:26:24;;;;;;;4.00;1.23;;;;;;;2.42;100.00;101050.38;5000289;28;20195;-67
2022/12/27 02:29:17;;;;;;;6.57;1.30;;;;;;;2.30;100.00;101053.81;5012998;28;20697;-67
2022/12/27 02:32:04;;;;;;;5.23;1.20;;;;;;;2.18;100.00;101053.88;4993623;28;20220;-66
2022/12/27 02:34:40;;;;;;;5.27;1.63;;;;;;;2.24;100.00;101054.69;5010536;28;20173;-67
2022/12/27 02:37:09;;;;;;;5.17;1.80;;;;;;;2.22;100.00;101050.47;5010245;28;20299;-67
2022/12/27 02:39:39;;;;;;;3.63;1.00;;;;;;;2.32;100.00;101054.66;5013342;28;20182;-67
2022/12/27 02:53:32;;;;;;;2.40;1.23;;;;;;;2.25;100.00;101064.00;5023459;28;20283;-67
2022/12/27 03:03:19;;;;;;;10.67;2.23;;;;;;;2.21;100.00;101076.72;5012567;28;20284;-67
2022/12/27 03:05:41;;;;;;;6.23;1.70;;;;;;;2.11;100.00;101063.22;4999845;28;20187;-67
2022/12/27 03:08:20;;;;;;;5.03;1.60;;;;;;;2.03;100.00;101057.31;5027486;28;20185;-67
2022/12/27 03:15:53;;;;;;;4.20;1.30;;;;;;;1.99;100.00;101056.50;5007680;28;20238;-67
2022/12/27 03:17:08;;;;;;;5.40;1.63;;;;;;;1.77;100.00;101046.44;5000556;28;20346;-67
2022/12/27 03:25:29;;;;;;;2.50;1.60;;;;;;;1.82;100.00;101063.31;5012492;28;20221;-67
2022/12/27 03:33:34;;;;;;;8.73;1.67;;;;;;;1.70;100.00;101070.13;5011843;28;20199;-67
2022/12/27 03:39:13;;;;;;;6.93;1.67;;;;;;;1.75;100.00;101082.78;5012095;28;20609;-67
2022/12/27 03:44:29;;;;;;;5.30;2.07;;;;;;;1.92;100.00;101087.81;5012164;28;20622;-67
2022/12/27 03:47:09;;;;;;;8.07;1.67;;;;;;;1.98;100.00;101081.88;5011125;28;20174;-67
2022/12/27 03:50:20;;;;;;;4.07;1.53;;;;;;;1.91;100.00;101078.50;5010806;28;20205;-67
2022/12/27 03:52:55;;;;;;;6.00;1.80;;;;;;;1.94;100.00;101081.03;4987161;28;20231;-67
2022/12/27 03:55:21;;;;;;;4.93;1.80;;;;;;;2.08;100.00;101071.69;5006889;28;20654;-67
2022/12/27 03:57:47;;;;;;;9.70;2.10;;;;;;;2.12;100.00;101080.13;5002288;28;20209;-68
2022/12/27 04:00:13;;;;;;;5.60;2.03;;;;;;;2.18;100.00;101077.56;4992407;28;20197;-67
2022/12/27 04:02:38;;;;;;;5.07;1.43;;;;;;;2.22;100.00;101070.78;5025647;28;20200;-67
2022/12/27 04:05:04;;;;;;;2.93;1.60;;;;;;;2.28;100.00;101072.44;5011992;28;20208;-67
2022/12/27 04:07:29;;;;;;;4.03;1.60;;;;;;;2.15;100.00;101076.75;5026494;28;20268;-67
2022/12/27 04:34:44;;;;;;;5.73;1.70;;;;;;;2.03;100.00;101068.31;5015281;28;20188;-67
2022/12/27 04:37:18;;;;;;;8.43;1.80;;;;;;;2.05;100.00;101061.53;5029796;28;20655;-67
2022/12/27 04:54:55;;;;;;;2.97;1.53;;;;;;;2.00;100.00;101068.34;5015364;28;20200;-67
2022/12/27 04:56:13;;;;;;;6.43;1.80;;;;;;;1.98;100.00;101069.19;5014349;28;20380;-67
2022/12/27 05:02:01;;;;;;;7.67;2.47;;;;;;;1.97;100.00;101072.56;5013205;28;20292;-67
2022/12/27 05:04:27;;;;;;;7.87;1.83;;;;;;;2.02;100.00;101070.84;4973270;28;20209;-67
2022/12/27 05:06:53;;;;;;;6.73;1.60;;;;;;;1.93;100.00;101072.59;4956430;28;20188;-67
2022/12/27 05:14:46;;;;;;;7.47;2.60;;;;;;;2.00;100.00;101093.72;4973041;28;20686;-67
2022/12/27 05:17:12;;;;;;;5.40;2.30;;;;;;;2.08;100.00;101091.16;4972677;28;20212;-67
2022/12/27 05:19:37;;;;;;;4.13;2.17;;;;;;;2.06;100.00;101095.38;4956485;28;20269;-67
2022/12/27 05:27:30;;;;;;;2.87;2.00;;;;;;;1.92;100.00;101108.09;4972401;28;20195;-67
2022/12/27 05:29:56;;;;;;;4.57;2.40;;;;;;;1.92;100.00;101108.09;4972653;28;20209;-67
2022/12/27 05:32:21;;;;;;;7.00;2.17;;;;;;;1.98;100.00;101112.34;4962109;28;20237;-67
2022/12/27 05:34:46;;;;;;;7.90;2.77;;;;;;;1.97;100.00;101121.63;4969318;28;20204;-67
2022/12/27 05:37:11;;;;;;;3.17;2.30;;;;;;;1.91;100.00;101116.56;5011819;28;20212;-67
2022/12/27 05:39:37;;;;;;;9.73;2.77;;;;;;;1.92;100.00;101116.59;5013092;28;20265;-68
2022/12/27 05:42:02;;;;;;;6.57;2.20;;;;;;;1.94;100.00;101111.50;5003545;28;20219;-67
2022/12/27 05:44:28;;;;;;;7.47;2.40;;;;;;;1.80;100.00;101116.59;5013987;28;20217;-67
2022/12/27 05:46:54;;;;;;;7.63;2.30;;;;;;;1.84;100.00;101130.13;5013224;28;20189;-67
2022/12/27 05:49:19;;;;;;;6.67;2.93;;;;;;;1.89;100.00;101134.34;5012492;28;20273;-67
2022/12/27 05:51:45;;;;;;;2.77;2.17;;;;;;;1.76;100.00;101133.53;5016499;28;20290;-67
2022/12/27 05:54:10;;;;;;;8.37;2.27;;;;;;;1.90;100.00;101135.19;5008001;28;20190;-66
2022/12/27 05:56:36;;;;;;;5.40;2.17;;;;;;;1.87;100.00;101143.66;5010370;28;20204;-67
2022/12/27 05:59:02;;;;;;;5.20;2.60;;;;;;;1.82;100.00;101147.03;5013230;28;20657;-67
2022/12/27 06:01:28;;;;;;;8.87;2.40;;;;;;;1.80;100.00;101144.50;5021220;28;20268;-67
2022/12/27 06:03:53;;;;;;;6.60;2.60;;;;;;;1.85;100.00;101147.88;5016830;28;20271;-67
2022/12/27 06:06:18;;;;;;;8.80;2.80;;;;;;;1.94;100.00;101147.03;5012891;28;20193;-67
2022/12/27 06:08:43;;;;;;;4.17;2.23;;;;;;;1.92;100.00;101149.56;5013244;28;20181;-67
2022/12/27 06:11:12;;;;;;;6.63;3.03;;;;;;;2.03;100.00;101154.59;5011542;28;20246;-67
2022/12/27 06:13:38;;;;;;;5.53;2.50;;;;;;;2.16;100.00;101155.44;5012782;28;20553;-67
2022/12/27 06:16:06;;;;;;;4.53;2.50;;;;;;;2.09;100.00;101154.59;5009828;28;20191;-67
2022/12/27 06:18:34;;;;;;;4.83;2.80;;;;;;;1.96;100.00;101165.63;5008419;28;20232;-67
2022/12/27 06:21:08;;;;;;;7.60;3.07;;;;;;;1.94;100.00;101167.31;5000693;28;20234;-67
2022/12/27 06:23:35;;;;;;;6.10;2.17;;;;;;;1.88;100.00;101170.69;5012093;28;20185;-67
2022/12/27 06:26:22;;;;;;;8.07;2.97;;;;;;;1.80;100.00;101169.88;5012184;28;20187;-67
2022/12/27 06:28:48;;;;;;;7.70;2.47;;;;;;;1.80;100.00;101171.56;5028234;28;20531;-66
2022/12/27 06:31:15;;;;;;;4.77;2.07;;;;;;;2.01;100.00;101170.69;5004539;28;20779;-66
2022/12/27 06:33:40;;;;;;;4.77;2.33;;;;;;;2.00;100.00;101164.78;5011176;28;20546;-66
2022/12/27 06:36:08;;;;;;;5.93;2.60;;;;;;;2.20;100.00;101166.44;5012146;28;20193;-66
2022/12/27 06:38:33;;;;;;;6.53;2.57;;;;;;;2.24;100.00;101160.47;5012571;28;20199;-66
2022/12/27 06:41:08;;;;;;;5.43;2.90;;;;;;;2.17;100.00;101166.41;5001179;28;20278;-66
2022/12/27 06:43:33;;;;;;;9.33;2.60;;;;;;;2.19;100.00;101167.28;5003887;28;20650;-66
2022/12/27 06:46:01;;;;;;;4.97;2.67;;;;;;;2.28;100.00;101162.16;5011951;28;20186;-66
2022/12/27 06:48:27;;;;;;;5.77;2.63;;;;;;;2.19;100.00;101164.72;5012693;28;20181;-67
2022/12/27 06:50:52;;;;;;;6.30;2.70;;;;;;;2.25;100.00;101167.25;5004039;28;20242;-66
2022/12/27 06:53:18;;;;;;;5.77;2.83;;;;;;;2.26;100.00;101161.34;5021163;28;20223;-66
2022/12/27 06:55:43;;;;;;;7.27;2.67;;;;;;;2.17;100.00;101169.81;5012693;28;20186;-68
2022/12/27 06:58:08;;;;;;;5.80;3.13;;;;;;;2.14;100.00;101177.44;5011510;28;20247;-66
2022/12/27 07:00:33;;;;;;;4.83;2.93;;;;;;;2.09;100.00;101167.28;5006368;28;20458;-69
2022/12/27 07:02:59;;;;;;;8.07;2.57;;;;;;;2.14;100.00;101166.44;5010641;28;20287;-67
2022/12/27 07:05:24;;;;;;;6.73;2.70;;;;;;;2.09;100.00;101169.81;5012506;28;20188;-66
2022/12/27 07:07:52;;;;;;;7.47;2.83;;;;;;;2.14;100.00;101184.22;5011766;28;20179;-67
2022/12/27 07:10:18;;;;;;;4.47;3.23;;;;;;;2.12;100.00;101183.34;5004093;28;20229;-69
2022/12/27 07:12:43;;;;;;;9.20;3.07;;;;;;;1.98;100.00;101183.38;5023447;28;20276;-66
2022/12/27 07:15:09;;;;;;;7.70;2.70;;;;;;;2.02;100.00;101190.13;5012533;28;20264;-66
2022/12/27 07:17:35;;;;;;;5.10;2.90;;;;;;;1.99;100.00;101196.06;5011228;28;20237;-67
2022/12/27 07:20:02;;;;;;;13.23;2.97;;;;;;;2.06;100.00;101199.44;5010067;28;20186;-67
2022/12/27 07:22:28;;;;;;;5.93;2.70;;;;;;;2.12;100.00;101196.88;5000432;28;20225;-67
2022/12/27 07:24:53;;;;;;;3.60;2.47;;;;;;;2.16;100.00;101202.81;5002283;28;20553;-66
2022/12/27 07:27:19;;;;;;;8.40;2.93;;;;;;;2.16;100.00;101200.25;5011065;28;20261;-67
2022/12/27 07:29:44;;;;;;;10.90;3.73;;;;;;;2.16;100.00;101206.19;5011645;28;20575;-67
2022/12/27 07:32:09;;;;;;;5.03;2.80;;;;;;;2.07;100.00;101204.53;5016507;28;20581;-66
2022/12/27 07:34:35;;;;;;;6.43;2.80;;;;;;;2.10;100.00;101203.69;5010359;28;20219;-66
2022/12/27 07:37:00;;;;;;;5.60;2.63;;;;;;;2.09;100.00;101202.81;5009797;28;20200;-67
2022/12/27 07:39:26;;;;;;;8.67;2.97;;;;;;;2.10;100.00;101201.97;5010584;28;20190;-67
2022/12/27 07:41:51;;;;;;;9.03;2.90;;;;;;;2.19;100.00;101212.97;5014412;28;20230;-67
2022/12/27 07:44:16;;;;;;;7.03;3.07;;;;;;;2.07;100.00;101209.59;5011839;28;20541;-67
2022/12/27 07:46:42;;;;;;;8.40;2.90;;;;;;;2.13;100.00;101218.88;5004702;28;20189;-67
2022/12/27 07:49:09;;;;;;;4.43;2.53;;;;;;;2.25;100.00;101210.41;5010230;28;20549;-67
2022/12/27 07:51:34;;;;;;;10.20;2.57;;;;;;;2.22;100.00;101215.47;5012660;28;20235;-67
2022/12/27 07:54:00;;;;;;;12.17;3.17;;;;;;;2.28;100.00;101223.09;5008418;28;20189;-67
2022/12/27 07:56:27;;;;;;;5.47;2.77;;;;;;;2.19;100.00;101223.13;5009979;28;20550;-67
2022/12/27 07:58:54;;;;;;;5.20;2.77;;;;;;;2.27;100.00;101231.56;5010354;28;20226;-68
2022/12/27 08:01:21;;;;;;;8.97;3.57;;;;;;;2.22;100.00;101236.66;4999118;28;20235;-67
2022/12/27 08:03:47;;;;;;;10.57;3.00;;;;;;;2.14;100.00;101228.19;5009596;28;20186;-68
2022/12/27 08:06:32;;;;;;;10.97;3.67;;;;;;;2.07;100.00;101237.53;5011085;28;20198;-67
2022/12/27 08:08:59;;;;;;;8.07;3.17;;;;;;;2.22;100.00;101234.13;5006952;28;20186;-67
2022/12/27 08:11:29;;;;;;;5.87;3.03;;;;;;;2.29;100.00;101244.25;5005404;28;20248;-67
2022/12/27 08:13:54;;;;;;;8.77;2.83;;;;;;;2.26;100.00;101238.31;5014560;28;20190;-67
2022/12/27 08:16:23;;;;;;;9.67;3.00;;;;;;;2.29;100.00;101237.47;5006163;28;20236;-67
2022/12/27 08:18:48;;;;;;;7.90;2.83;;;;;;;2.26;100.00;101240.03;5030024;28;20236;-67
2022/12/27 08:21:14;;;;;;;7.80;3.03;;;;;;;2.35;100.00;101241.72;5013972;28;20635;-67
2022/12/27 08:23:39;;;;;;;9.13;2.50;;;;;;;2.48;100.00;101245.91;5030188;28;20186;-66
2022/12/27 08:26:07;;;;;;;7.40;2.93;;;;;;;2.42;100.00;101254.38;5013912;28;20190;-69
2022/12/27 08:28:35;;;;;;;7.60;2.90;;;;;;;2.43;100.00;101250.13;5030114;28;20181;-67
2022/12/27 08:31:00;;;;;;;10.63;3.93;;;;;;;2.49;100.00;101256.91;5011741;28;20321;-67
2022/12/27 08:33:26;;;;;;;7.63;2.60;;;;;;;2.62;100.00;101250.09;5014248;28;21086;-68
2022/12/27 08:35:52;;;;;;;6.77;2.90;;;;;;;2.71;100.00;101255.16;5007857;28;20648;-67
2022/12/27 08:38:18;;;;;;;5.17;2.73;;;;;;;2.60;100.00;101254.34;5006567;28;20198;-67
2022/12/27 08:40:47;;;;;;;7.70;3.47;;;;;;;2.76;100.00;101258.53;5009156;28;20233;-67
2022/12/27 08:43:13;;;;;;;3.90;2.50;;;;;;;2.80;100.00;101260.19;5023963;28;20269;-67
2022/12/27 08:45:39;;;;;;;7.37;2.83;;;;;;;2.87;100.00;101261.88;5009958;28;20176;-67
2022/12/27 08:48:05;;;;;;;5.03;2.30;;;;;;;3.09;100.00;101268.56;5013415;28;20422;-68
2022/12/27 08:50:31;;;;;;;5.47;2.90;;;;;;;3.15;100.00;101264.31;5005672;28;20218;-66
2022/12/27 08:52:58;;;;;;;5.13;2.77;;;;;;;3.20;100.00;101260.03;5026118;28;20202;-67
2022/12/27 08:55:25;;;;;;;6.77;3.20;;;;;;;3.40;100.00;101264.16;5014242;28;20186;-67
2022/12/27 08:57:55;;;;;;;7.27;2.80;;;;;;;3.56;100.00;101264.91;5029133;28;20210;-67
2022/12/27 09:00:20;;;;;;;6.47;3.57;;;;;;;4.20;100.00;101265.22;5002058;28;20195;-69
2022/12/27 09:02:45;;;;;;;6.43;3.13;;;;;;;4.80;100.00;101261.19;5006104;28;20551;-69
2022/12/27 09:05:11;;;;;;;7.87;2.70;;;;;;;5.78;100.00;101260.69;5014414;28;20195;-68
2022/12/27 09:07:36;;;;;;;3.97;2.13;;;;;;;6.84;100.00;101249.47;5012005;28;20184;-67
2022/12/27 09:10:02;;;;;;;5.93;2.40;;;;;;;7.42;100.00;101243.09;5010763;28;20317;-67
2022/12/27 09:12:27;;;;;;;5.73;2.20;;;;;;;8.21;100.00;101243.72;4986911;28;20231;-67
2022/12/27 09:14:53;;;;;;;4.03;2.17;;;;;;;9.06;100.00;101244.84;5011525;28;20204;-67
2022/12/27 09:17:18;;;;;;;4.23;2.50;;;;;;;9.75;100.00;101247.81;5011331;28;20298;-67
2022/12/27 09:19:43;;;;;;;5.10;1.80;;;;;;;9.79;100.00;101243.41;5014062;28;20707;-67
2022/12/27 09:22:09;;;;;;;5.00;2.30;;;;;;;9.98;100.00;101247.03;5020885;28;20242;-67
2022/12/27 09:24:34;;;;;;;4.77;2.20;;;;;;;9.94;100.00;101247.22;5014367;28;20183;-67
2022/12/27 09:26:59;;;;;;;4.93;2.40;;;;;;;10.35;98.42;101242.38;5009017;28;20194;-67
2022/12/27 09:29:25;;;;;;;5.97;2.00;;;;;;;10.74;96.54;101249.59;5012074;28;20182;-67
2022/12/27 09:31:50;;;;;;;6.87;2.70;;;;;;;10.43;96.87;101245.56;5012171;28;20303;-68
2022/12/27 09:34:15;;;;;;;4.27;1.97;;;;;;;10.14;96.67;101249.09;5013284;28;20613;-67
2022/12/27 09:36:41;;;;;;;4.97;2.43;;;;;;;10.62;95.23;101252.59;5028572;28;20262;-67
2022/12/27 09:39:06;;;;;;;6.20;2.23;;;;;;;9.65;99.24;101260.13;5012153;28;20657;-66
2022/12/27 09:41:38;;;;;;;7.53;2.60;;;;;;;9.29;100.00;101267.22;4998338;28;20226;-67
2022/12/27 09:44:28;;;;;;;5.17;2.67;;;;;;;9.02;100.00;101262.06;5015468;28;20245;-67
2022/12/27 09:47:02;;;;;;;9.13;3.80;;;;;;;8.97;100.00;101262.19;5011099;28;20183;-67
2022/12/27 09:49:54;;;;;;;64.20;61.20;;;;;;;9.18;100.00;101270.16;4938680;28;991982;-68
2022/12/27 09:52:25;;;;;;;6.33;3.27;;;;;;;10.45;98.72;101258.34;4994840;28;20701;-66
2022/12/27 09:55:16;;;;;;;5.90;2.30;;;;;;;11.28;90.55;101265.56;5010961;28;20666;-67
2022/12/27 09:57:44;;;;;;;7.00;2.53;;;;;;;11.84;84.69;101265.09;5009050;28;20206;-67
2022/12/27 10:00:23;;;;;;;6.20;2.23;;;;;;;10.36;92.62;101266.34;5003431;28;20187;-67
2022/12/27 10:02:50;;;;;;;5.10;2.20;;;;;;;9.71;98.67;101264.19;5012334;28;20182;-67
2022/12/27 10:05:22;;;;;;;4.00;2.17;;;;;;;9.06;100.00;101271.34;5013071;28;20574;-67
2022/12/27 10:08:16;;;;;;;8.67;2.43;;;;;;;8.66;100.00;101275.88;5028224;28;20183;-67
2022/12/27 10:10:47;;;;;;;7.17;2.90;;;;;;;8.43;100.00;101284.16;4999194;28;20263;-67
2022/12/27 10:13:41;;;;;;;6.23;2.40;;;;;;;6.98;100.00;101285.00;5022462;28;20181;-67
2022/12/27 10:16:16;;;;;;;8.17;2.87;;;;;;;5.89;100.00;101281.84;5009877;28;20219;-67
2022/12/27 10:18:46;;;;;;;6.67;2.63;;;;;;;5.30;100.00;101290.34;5011685;28;20191;-67
2022/12/27 10:21:16;;;;;;;7.13;2.63;;;;;;;5.15;100.00;101283.72;5004855;28;20229;-67
2022/12/27 10:23:49;;;;;;;7.33;3.03;;;;;;;4.79;100.00;101283.31;5012902;28;20234;-67
2022/12/27 10:26:17;;;;;;;9.17;2.90;;;;;;;4.67;100.00;101281.75;5012161;28;20187;-70
2022/12/27 10:28:53;;;;;;;8.03;2.77;;;;;;;4.75;100.00;101262.97;5025705;28;20183;-70
2022/12/27 10:31:22;;;;;;;8.47;2.73;;;;;;;4.63;100.00;101259.69;5011438;28;20233;-68
2022/12/27 10:33:50;;;;;;;8.87;3.17;;;;;;;4.59;100.00;101264.84;5017377;28;20181;-68
2022/12/27 10:36:25;;;;;;;4.93;2.80;;;;;;;4.60;100.00;101254.66;5011115;28;20284;-68
2022/12/27 10:38:50;;;;;;;7.40;2.90;;;;;;;4.47;100.00;101255.66;5012368;28;20673;-68
2022/12/27 10:41:23;;;;;;;4.57;2.73;;;;;;;4.47;100.00;101260.75;5004290;28;20313;-67
2022/12/27 10:43:54;;;;;;;10.70;2.90;;;;;;;4.66;100.00;101262.22;5008357;28;20185;-68
2022/12/27 10:46:23;;;;;;;7.77;3.23;;;;;;;4.74;100.00;101264.69;5010765;28;20234;-68
2022/12/27 10:49:05;;;;;;;7.73;2.83;;;;;;;4.71;100.00;101251.13;5012767;28;20181;-68
2022/12/27 10:51:40;;;;;;;7.47;2.60;;;;;;;4.82;100.00;101254.38;4998224;28;20261;-70
2022/12/27 10:54:24;;;;;;;5.97;2.73;;;;;;;4.74;100.00;101257.03;5024899;28;20261;-67
2022/12/27 10:56:50;;;;;;;6.30;2.63;;;;;;;4.79;100.00;101262.91;5003958;28;20249;-68
2022/12/27 10:59:16;;;;;;;4.53;2.63;;;;;;;4.91;100.00;101266.19;5003195;28;20192;-68
2022/12/27 11:01:47;;;;;;;5.63;2.70;;;;;;;4.99;100.00;101266.94;5002075;28;20267;-69
2022/12/27 11:04:12;;;;;;;6.90;2.80;;;;;;;5.10;100.00;101266.81;5008841;28;20550;-70
2022/12/27 11:06:38;;;;;;;7.17;3.33;;;;;;;5.10;100.00;101265.09;5008021;28;20194;-68
2022/12/27 11:09:25;;;;;;;6.97;2.90;;;;;;;4.99;100.00;101261.84;5011782;28;20213;-68
2022/12/27 11:11:51;;;;;;;10.17;3.17;;;;;;;4.99;100.00;101260.13;5001468;28;20255;-67
2022/12/27 11:14:19;;;;;;;7.68;4.03;;;;;;;5.42;100.00;101263.81;5007012;28;20885;-67
2022/12/27 11:16:45;;;;;;;7.70;3.70;;;;;;;5.32;100.00;101257.13;5011210;28;20270;-69
2022/12/27 11:19:24;;;;;;;7.87;3.63;;;;;;;5.30;100.00;101261.44;5012072;28;20677;-68
2022/12/27 11:21:51;;;;;;;6.17;2.73;;;;;;;5.29;100.00;101262.28;5004026;28;20659;-68
2022/12/27 11:24:19;;;;;;;8.23;3.30;;;;;;;5.39;100.00;101258.75;5018597;28;20170;-68
2022/12/27 11:27:02;;;;;;;7.23;3.10;;;;;;;5.24;100.00;101258.97;5010087;28;20263;-68
2022/12/27 11:29:30;;;;;;;9.03;2.80;;;;;;;5.21;100.00;101256.44;5006911;28;20256;-68
2022/12/27 11:31:56;;;;;;;6.80;2.97;;;;;;;5.23;100.00;101253.00;5014602;28;20237;-67
2022/12/27 11:34:42;;;;;;;6.47;2.93;;;;;;;5.39;100.00;101253.63;5023992;28;20184;-67
2022/12/27 11:37:14;;;;;;;8.33;2.77;;;;;;;5.45;100.00;101258.66;5009912;28;20217;-68
2022/12/27 11:39:51;;;;;;;6.83;2.97;;;;;;;5.36;100.00;101252.84;5011210;28;20188;-68
2022/12/27 11:42:37;;;;;;;10.67;5.67;;;;;;;5.55;100.00;101268.75;4999704;28;20311;-68
2022/12/27 11:45:05;;;;;;;7.30;3.23;;;;;;;5.48;100.00;101265.41;5011709;28;20551;-67
2022/12/27 11:47:40;;;;;;;6.67;2.63;;;;;;;5.57;100.00;101256.78;5011149;28;20185;-68
2022/12/27 11:50:48;;;;;;;6.40;3.10;;;;;;;5.75;100.00;101251.38;4998704;28;20177;-67
2022/12/27 11:53:48;;;;;;;8.70;3.57;;;;;;;5.82;100.00;101252.97;5009795;28;20325;-68
2022/12/27 11:56:24;;;;;;;8.23;3.73;;;;;;;5.99;100.00;101246.78;4998828;28;20197;-67
2022/12/27 11:59:24;;;;;;;4.63;2.20;;;;;;;6.02;100.00;101244.19;5008375;28;20228;-68
2022/12/27 12:02:27;;;;;;;8.07;3.33;;;;;;;5.91;100.00;101249.44;5004708;28;20523;-69
2022/12/27 12:05:19;;;;;;;6.10;2.87;;;;;;;6.00;100.00;101242.53;5010019;28;20304;-68
2022/12/27 12:08:05;;;;;;;4.07;2.10;;;;;;;5.95;100.00;101245.13;5007292;28;20195;-67
2022/12/27 12:10:45;;;;;;;10.27;4.17;;;;;;;6.07;100.00;101250.03;5008063;28;20248;-67
2022/12/27 12:13:29;;;;;;;7.50;3.37;;;;;;;6.10;100.00;101251.69;5009716;28;20196;-67
2022/12/27 12:16:34;;;;;;;8.60;2.80;;;;;;;6.26;100.00;101252.28;4994440;28;20240;-68
2022/12/27 12:19:36;;;;;;;5.23;2.53;;;;;;;6.23;100.00;101252.34;4999215;28;20218;-68
2022/12/27 12:22:35;;;;;;;6.13;3.03;;;;;;;6.41;100.00;101249.47;5015592;28;20231;-68
2022/12/27 12:25:32;;;;;;;4.73;2.30;;;;;;;6.51;100.00;101255.25;5011190;28;20190;-67
2022/12/27 12:28:16;;;;;;;6.80;2.70;;;;;;;6.99;100.00;101259.38;5023490;28;20491;-68
2022/12/27 12:30:44;;;;;;;7.77;2.73;;;;;;;6.67;100.00;101253.19;5002633;28;20296;-68
2022/12/27 12:33:28;;;;;;;3.93;2.27;;;;;;;6.48;100.00;101249.34;5016490;28;20180;-67
2022/12/27 12:36:48;;;;;;;4.17;2.30;;;;;;;6.21;100.00;101247.25;5009506;28;20191;-69
2022/12/27 12:39:47;;;;;;;8.60;2.80;;;;;;;6.21;100.00;101243.84;4930927;29;20198;-68
2022/12/27 12:42:17;;;;;;;6.90;2.93;;;;;;;6.25;100.00;101251.44;5013029;28;20233;-69
2022/12/27 12:44:59;;;;;;;9.17;3.10;;;;;;;6.53;100.00;101244.97;5006958;28;20211;-69
2022/12/27 12:47:36;;;;;;;10.10;2.63;;;;;;;6.48;100.00;101251.91;5007497;28;20229;-68
2022/12/27 12:50:27;;;;;;;7.30;2.40;;;;;;;6.29;100.00;101250.50;5011000;28;20206;-68
2022/12/27 12:53:30;;;;;;;7.00;2.77;;;;;;;6.13;100.00;101251.66;4984925;28;20218;-68
2022/12/27 12:56:23;;;;;;;7.47;2.70;;;;;;;6.00;100.00;101251.00;5012391;28;20193;-68
2022/12/27 12:59:03;;;;;;;7.20;2.50;;;;;;;5.95;100.00;101248.53;5002399;28;20219;-68
2022/12/27 13:01:47;;;;;;;6.43;2.73;;;;;;;5.82;100.00;101244.50;5015366;28;20237;-68
2022/12/27 13:04:32;;;;;;;6.67;2.73;;;;;;;5.90;100.00;101239.25;5014955;28;20244;-68
2022/12/27 13:07:40;;;;;;;6.97;2.57;;;;;;;5.89;100.00;101243.53;5012275;28;20239;-68
2022/12/27 13:10:23;;;;;;;8.10;2.73;;;;;;;5.79;100.00;101240.28;4989869;28;20557;-67
2022/12/27 13:13:25;;;;;;;4.33;2.20;;;;;;;5.82;100.00;101231.72;5012348;28;20236;-69
2022/12/27 13:16:02;;;;;;;4.70;2.53;;;;;;;5.93;100.00;101227.28;5012369;28;20284;-69
2022/12/27 13:19:04;;;;;;;8.77;3.07;;;;;;;5.96;100.00;101227.19;5005038;28;20213;-69
2022/12/27 13:21:54;;;;;;;5.53;3.47;;;;;;;5.92;100.00;101222.19;5005624;28;20225;-68
2022/12/27 13:24:41;;;;;;;7.33;2.70;;;;;;;5.95;100.00;101214.47;5012382;28;20181;-68